Time;durP1;ratioP1;P1;durP2;ratioP2;P2;SDS_P1;SDS_P2;PMS_P1;PMS_P2;Temp;Humidity;BMP_temperature;BMP_pressure;BME280_temperature;BME280_humidity;BME280_pressure;Samples;Min_cycle;Max_cycle;Signal;HPM_P1;HPM_P2
2022/12/13 00:02:13;;;;;;;8.87;4.50;;;-8.10;99.90;;;;;;5013482;28;20203;-68
2022/12/13 00:04:39;;;;;;;1.00;0.40;;;-8.20;99.90;;;;;;5013343;28;20182;-69
2022/12/13 00:07:04;;;;;;;1.00;0.40;;;-8.20;99.90;;;;;;5014004;28;20603;-68
2022/12/13 00:09:30;;;;;;;1.97;0.50;;;-8.30;99.90;;;;;;5013606;28;20187;-69
2022/12/13 00:11:55;;;;;;;2.90;1.50;;;-8.20;99.90;;;;;;4995841;28;20269;-69
2022/12/13 00:14:21;;;;;;;10.10;4.57;;;-8.20;99.90;;;;;;5013806;28;20729;-69
2022/12/13 00:16:48;;;;;;;1.17;0.77;;;-8.20;99.90;;;;;;5013024;28;20278;-69
2022/12/13 00:19:14;;;;;;;2.03;1.23;;;-8.10;99.90;;;;;;5013333;28;20202;-69
2022/12/13 00:21:40;;;;;;;24.50;5.57;;;-8.10;99.90;;;;;;5020376;28;20509;-69
2022/12/13 00:24:07;;;;;;;1.80;1.37;;;-8.00;99.90;;;;;;5013006;28;20497;-69
2022/12/13 00:26:33;;;;;;;3.77;2.30;;;-8.20;99.90;;;;;;5013643;28;20652;-69
2022/12/13 00:29:00;;;;;;;1.17;0.50;;;-8.30;99.90;;;;;;5013201;28;20518;-69
2022/12/13 00:31:26;;;;;;;8.90;4.17;;;-8.40;99.90;;;;;;5010883;28;20414;-69
2022/12/13 00:33:52;;;;;;;10.87;4.77;;;-8.40;99.90;;;;;;5015895;28;20419;-69
2022/12/13 00:36:18;;;;;;;15.43;6.07;;;-8.30;99.90;;;;;;5013350;28;20449;-69
2022/12/13 00:38:45;;;;;;;13.83;4.90;;;-8.30;99.90;;;;;;5013014;28;20897;-69
2022/12/13 00:41:10;;;;;;;12.40;5.07;;;-8.30;99.90;;;;;;5013486;28;20421;-69
2022/12/13 00:43:36;;;;;;;10.00;4.43;;;-8.30;99.90;;;;;;5018281;28;20974;-69
2022/12/13 00:46:01;;;;;;;14.30;4.47;;;-8.30;99.90;;;;;;5019670;28;20589;-69
2022/12/13 00:48:27;;;;;;;12.50;4.37;;;-8.40;99.90;;;;;;5015125;28;20226;-69
2022/12/13 00:50:53;;;;;;;8.87;3.80;;;-8.40;99.90;;;;;;5012984;28;20183;-69
2022/12/13 00:53:18;;;;;;;1.10;0.50;;;-8.50;99.90;;;;;;5012332;28;20198;-69
2022/12/13 00:55:44;;;;;;;13.43;5.30;;;-8.50;99.90;;;;;;5012673;28;20557;-69
2022/12/13 00:58:09;;;;;;;10.10;4.33;;;-8.40;99.90;;;;;;5012093;28;20211;-69
2022/12/13 01:00:35;;;;;;;12.07;4.87;;;-8.40;99.90;;;;;;5012790;28;20190;-69
2022/12/13 01:03:19;;;;;;;6.47;3.70;;;-8.40;99.90;;;;;;5011850;28;20581;-69
2022/12/13 01:05:48;;;;;;;1.53;0.67;;;-8.40;99.90;;;;;;5012852;28;20522;-69
2022/12/13 01:08:14;;;;;;;8.50;4.83;;;-8.40;99.90;;;;;;5012492;28;20795;-69
2022/12/13 01:10:45;;;;;;;1.00;0.40;;;-8.40;99.90;;;;;;5013147;28;20426;-70
2022/12/13 01:13:11;;;;;;;1.00;0.40;;;-8.40;99.90;;;;;;5012550;28;20567;-69
2022/12/13 01:15:41;;;;;;;22.00;5.73;;;-8.50;99.90;;;;;;5013045;28;20781;-70
2022/12/13 01:18:07;;;;;;;3.77;0.70;;;-8.50;99.90;;;;;;5012262;28;20449;-70
2022/12/13 01:20:33;;;;;;;8.50;4.27;;;-8.60;99.90;;;;;;5020698;28;20802;-69
2022/12/13 01:22:58;;;;;;;1.00;0.47;;;-8.60;99.90;;;;;;5011985;28;20457;-70
2022/12/13 01:25:24;;;;;;;1.37;0.57;;;-8.60;99.90;;;;;;5012574;28;20993;-69
2022/12/13 01:27:50;;;;;;;6.70;3.00;;;-8.60;99.90;;;;;;5012498;28;20190;-69
2022/12/13 01:30:15;;;;;;;1.10;0.40;;;-8.50;99.90;;;;;;5014539;28;20175;-69
2022/12/13 01:32:41;;;;;;;1.20;0.47;;;-8.50;99.90;;;;;;5012750;28;20215;-70
2022/12/13 01:35:08;;;;;;;10.10;4.70;;;-8.50;99.90;;;;;;5012361;28;20474;-70
2022/12/13 01:37:35;;;;;;;11.10;4.00;;;-8.60;99.90;;;;;;5012235;28;20179;-70
2022/12/13 01:40:02;;;;;;;12.87;5.17;;;-8.70;99.90;;;;;;5012182;28;20418;-68
2022/12/13 01:42:28;;;;;;;15.60;5.70;;;-8.80;99.90;;;;;;5012730;28;20507;-69
2022/12/13 01:45:05;;;;;;;12.07;5.20;;;-8.70;99.90;;;;;;5023609;28;20417;-68
2022/12/13 01:47:39;;;;;;;10.33;4.50;;;-8.70;99.90;;;;;;5000438;28;20420;-70
2022/12/13 01:50:10;;;;;;;7.33;4.63;;;-8.60;99.90;;;;;;5011908;28;20770;-70
2022/12/13 01:52:37;;;;;;;3.40;1.23;;;-8.60;99.90;;;;;;5011530;28;20447;-70
2022/12/13 01:55:05;;;;;;;9.90;4.70;;;-8.60;99.90;;;;;;5011757;28;21022;-69
2022/12/13 01:57:33;;;;;;;1.30;0.57;;;-8.60;99.90;;;;;;5011231;28;20488;-69
2022/12/13 02:00:00;;;;;;;1.00;0.43;;;-8.60;99.90;;;;;;5011518;28;20843;-70
2022/12/13 02:02:25;;;;;;;13.83;6.23;;;-8.60;99.90;;;;;;5010863;28;21037;-70
2022/12/13 02:05:02;;;;;;;11.10;4.73;;;-8.60;99.90;;;;;;5011333;28;20510;-69
2022/12/13 02:07:31;;;;;;;1.00;0.50;;;-8.60;99.90;;;;;;5011737;28;20185;-69
2022/12/13 02:10:00;;;;;;;1.70;0.53;;;-8.60;99.90;;;;;;5011598;28;20414;-70
2022/12/13 02:12:28;;;;;;;1.40;0.70;;;-8.60;99.90;;;;;;5010758;28;20520;-69
2022/12/13 02:14:55;;;;;;;1.00;0.40;;;-8.70;99.90;;;;;;5011690;28;20505;-69
2022/12/13 02:17:23;;;;;;;1.20;0.50;;;-8.70;99.90;;;;;;5011564;28;20933;-69
2022/12/13 02:20:11;;;;;;;12.03;4.70;;;-8.70;99.90;;;;;;5011869;28;20778;-69
2022/12/13 02:22:49;;;;;;;1.00;0.40;;;-8.80;99.90;;;;;;5011600;28;20489;-69
2022/12/13 02:25:35;;;;;;;12.27;5.07;;;-8.80;99.90;;;;;;5012094;28;20432;-70
2022/12/13 02:28:22;;;;;;;13.47;5.83;;;-8.80;99.90;;;;;;5012386;28;20501;-70
2022/12/13 02:30:57;;;;;;;11.70;5.20;;;-8.80;99.90;;;;;;5015028;28;20436;-69
2022/12/13 02:34:00;;;;;;;3.70;2.87;;;-8.90;99.90;;;;;;5019202;28;20471;-69
2022/12/13 02:36:55;;;;;;;13.23;5.63;;;-8.90;99.90;;;;;;5011754;28;20414;-69
2022/12/13 02:39:26;;;;;;;12.53;5.43;;;-8.80;99.90;;;;;;5012006;28;20465;-70
2022/12/13 02:42:08;;;;;;;9.77;4.50;;;-8.80;99.90;;;;;;5009489;28;20501;-69
2022/12/13 02:44:39;;;;;;;23.63;5.97;;;-8.90;99.90;;;;;;5004094;28;20567;-69
2022/12/13 02:47:11;;;;;;;18.17;6.13;;;-9.00;99.90;;;;;;5015503;28;20423;-69
2022/12/13 02:49:41;;;;;;;11.93;5.20;;;-9.10;99.90;;;;;;5018962;28;20445;-69
2022/12/13 02:52:08;;;;;;;13.07;6.30;;;-9.10;99.90;;;;;;5011416;28;20424;-69
2022/12/13 02:54:35;;;;;;;2.80;1.90;;;-9.10;99.90;;;;;;5011482;28;20429;-69
2022/12/13 02:57:01;;;;;;;1.00;0.40;;;-9.10;99.90;;;;;;5010540;28;20410;-69
2022/12/13 02:59:34;;;;;;;1.10;0.40;;;-9.10;99.90;;;;;;5012104;28;20812;-69
2022/12/13 03:02:17;;;;;;;19.83;6.37;;;-9.10;99.90;;;;;;5011511;28;20221;-69
2022/12/13 03:08:00;;;;;;;9.40;5.00;;;-9.10;99.90;;;;;;5011788;28;20815;-69
2022/12/13 03:10:34;;;;;;;13.83;5.67;;;-9.10;99.90;;;;;;5012203;28;20504;-69
2022/12/13 03:16:03;;;;;;;10.70;5.10;;;-9.10;99.90;;;;;;5012385;28;20437;-69
2022/12/13 03:18:32;;;;;;;15.83;5.87;;;-9.10;99.90;;;;;;5011342;28;20453;-69
2022/12/13 03:21:01;;;;;;;19.17;6.80;;;-9.10;99.90;;;;;;5019937;28;20422;-69
2022/12/13 03:23:26;;;;;;;1.27;0.87;;;-9.10;99.90;;;;;;5011997;28;20535;-69
2022/12/13 03:25:55;;;;;;;13.60;6.80;;;-9.10;99.90;;;;;;5015498;28;20452;-69
2022/12/13 03:28:20;;;;;;;10.27;5.33;;;-9.00;99.90;;;;;;5015075;28;20191;-69
2022/12/13 03:30:46;;;;;;;1.00;0.40;;;-9.10;99.90;;;;;;5023540;28;20452;-70
2022/12/13 03:33:12;;;;;;;13.77;6.03;;;-9.20;99.90;;;;;;5022508;28;20195;-69
2022/12/13 03:35:40;;;;;;;15.80;6.80;;;-9.20;99.90;;;;;;5015388;28;20581;-69
2022/12/13 03:38:06;;;;;;;12.73;5.67;;;-9.20;99.90;;;;;;5015118;28;20180;-70
2022/12/13 03:40:33;;;;;;;1.00;0.47;;;-9.20;99.90;;;;;;5015151;28;20471;-69
2022/12/13 03:42:59;;;;;;;13.87;6.43;;;-9.20;99.90;;;;;;5022659;28;20244;-70
2022/12/13 03:45:24;;;;;;;17.87;5.90;;;-9.10;99.90;;;;;;5017078;28;20418;-69
2022/12/13 03:47:50;;;;;;;11.03;4.20;;;-9.10;99.90;;;;;;5015009;28;20930;-69
2022/12/13 03:50:16;;;;;;;8.10;3.07;;;-9.10;99.90;;;;;;5014801;28;20183;-70
2022/12/13 03:52:41;;;;;;;13.10;6.13;;;-9.20;99.90;;;;;;5014583;28;20189;-69
2022/12/13 03:55:07;;;;;;;20.57;6.33;;;-9.20;99.90;;;;;;5014836;28;20179;-70
2022/12/13 03:57:33;;;;;;;17.53;6.50;;;-9.30;99.90;;;;;;5013934;28;20187;-69
2022/12/13 03:59:58;;;;;;;22.13;7.43;;;-9.30;99.90;;;;;;5014988;28;20430;-69
2022/12/13 04:02:24;;;;;;;13.57;6.40;;;-9.40;99.90;;;;;;5014448;28;20534;-69
2022/12/13 04:04:49;;;;;;;13.43;6.37;;;-9.30;99.90;;;;;;5014610;28;20186;-70
2022/12/13 04:07:15;;;;;;;3.53;1.57;;;-9.30;99.90;;;;;;5014682;28;20529;-70
2022/12/13 04:09:41;;;;;;;2.00;0.80;;;-9.30;99.90;;;;;;5014694;28;20194;-70
2022/12/13 04:14:50;;;;;;;17.53;5.97;;;-9.30;99.90;;;;;;5001796;28;20317;-70
2022/12/13 04:17:16;;;;;;;17.50;6.70;;;-9.30;99.90;;;;;;5013662;28;20418;-70
2022/12/13 04:19:41;;;;;;;18.20;6.93;;;-9.30;99.90;;;;;;5013370;28;20265;-70
2022/12/13 04:22:07;;;;;;;11.43;5.83;;;-9.40;99.90;;;;;;5012932;28;20269;-70
2022/12/13 04:24:33;;;;;;;15.80;6.70;;;-9.30;99.90;;;;;;5013734;28;20213;-70
2022/12/13 04:27:02;;;;;;;12.53;7.37;;;-9.30;99.90;;;;;;5013917;28;20186;-70
2022/12/13 04:29:28;;;;;;;14.47;7.40;;;-9.30;99.90;;;;;;5013551;28;20270;-70
2022/12/13 04:31:54;;;;;;;15.37;7.20;;;-9.30;99.90;;;;;;5022167;28;20409;-70
2022/12/13 04:34:19;;;;;;;20.60;7.30;;;-9.40;99.90;;;;;;5012783;28;20406;-70
2022/12/13 04:36:45;;;;;;;27.10;10.73;;;-9.40;99.90;;;;;;4992002;28;20337;-70
2022/12/13 04:39:10;;;;;;;17.73;8.07;;;-9.40;99.90;;;;;;5013500;28;20183;-70
2022/12/13 04:41:37;;;;;;;1.30;0.63;;;-9.40;99.90;;;;;;5013213;28;20659;-70
2022/12/13 04:44:04;;;;;;;17.63;8.97;;;-9.40;99.90;;;;;;5015514;28;20381;-70
2022/12/13 04:46:30;;;;;;;1.00;0.40;;;-9.40;99.90;;;;;;5008258;28;20524;-70
2022/12/13 04:48:56;;;;;;;18.60;8.40;;;-9.50;99.90;;;;;;5021167;28;20442;-70
2022/12/13 04:51:21;;;;;;;17.60;7.57;;;-9.50;99.90;;;;;;5013004;28;20195;-70
2022/12/13 04:53:47;;;;;;;1.20;0.60;;;-9.40;99.90;;;;;;5013322;28;20581;-70
2022/12/13 04:56:12;;;;;;;24.57;10.00;;;-9.50;99.90;;;;;;5012801;28;20187;-70
2022/12/13 04:58:38;;;;;;;16.30;8.40;;;-9.50;99.90;;;;;;5012461;28;20623;-70
2022/12/13 05:01:09;;;;;;;1.10;0.43;;;-9.50;99.90;;;;;;5013250;28;20183;-70
2022/12/13 05:03:35;;;;;;;1.47;0.60;;;-9.50;99.90;;;;;;4999288;28;20466;-70
2022/12/13 05:06:09;;;;;;;17.87;8.83;;;-9.40;99.90;;;;;;5013363;28;20422;-70
2022/12/13 05:08:36;;;;;;;20.47;8.17;;;-9.40;99.90;;;;;;5013124;28;20509;-70
2022/12/13 05:11:03;;;;;;;15.80;7.90;;;-9.40;99.90;;;;;;5012790;28;20953;-70
2022/12/13 05:13:29;;;;;;;1.83;0.60;;;-9.30;99.90;;;;;;5012100;28;20512;-70
2022/12/13 05:15:55;;;;;;;20.47;9.03;;;-9.30;99.90;;;;;;5013023;28;20428;-70
2022/12/13 05:18:21;;;;;;;19.83;9.60;;;-9.30;99.90;;;;;;5012290;28;20442;-70
2022/12/13 05:20:47;;;;;;;15.23;8.37;;;-9.30;99.90;;;;;;5012677;28;20545;-70
2022/12/13 05:23:12;;;;;;;20.40;9.10;;;-9.30;99.90;;;;;;5012014;28;20457;-70
2022/12/13 05:25:38;;;;;;;19.73;8.27;;;-9.30;99.90;;;;;;5012766;28;20191;-70
2022/12/13 05:28:04;;;;;;;26.17;9.60;;;-9.40;99.90;;;;;;5012522;28;20623;-70
2022/12/13 05:30:30;;;;;;;16.93;9.07;;;-9.60;99.90;;;;;;5022990;28;20261;-70
2022/12/13 05:32:55;;;;;;;13.20;6.10;;;-9.70;99.90;;;;;;5019362;28;20497;-70
2022/12/13 05:35:21;;;;;;;1.20;0.50;;;-9.60;99.90;;;;;;5012614;28;20191;-70
2022/12/13 05:37:47;;;;;;;1.30;0.50;;;-9.60;99.90;;;;;;5012429;28;20183;-70
2022/12/13 05:40:12;;;;;;;1.40;0.60;;;-9.60;99.90;;;;;;5012691;28;20229;-70
2022/12/13 05:42:38;;;;;;;19.93;8.83;;;-9.50;99.90;;;;;;5011744;28;20211;-70
2022/12/13 05:45:06;;;;;;;1.43;0.60;;;-9.50;99.90;;;;;;5014089;28;20795;-70
2022/12/13 05:47:32;;;;;;;24.63;9.20;;;-9.60;99.90;;;;;;5012261;28;20179;-69
2022/12/13 05:49:59;;;;;;;3.43;3.13;;;-9.60;99.90;;;;;;5011720;28;20624;-70
2022/12/13 05:52:24;;;;;;;6.90;1.20;;;-9.60;99.90;;;;;;5011820;28;20509;-70
2022/12/13 05:54:54;;;;;;;1.00;0.40;;;-9.60;99.90;;;;;;5012077;28;20199;-70
2022/12/13 05:57:20;;;;;;;19.13;7.43;;;-9.70;99.90;;;;;;5011149;28;20191;-70
2022/12/13 05:59:46;;;;;;;1.40;1.03;;;-9.70;99.90;;;;;;5011804;28;20484;-70
2022/12/13 06:02:11;;;;;;;1.13;0.47;;;-9.70;99.90;;;;;;5011627;28;20195;-69
2022/12/13 06:04:37;;;;;;;1.23;0.67;;;-9.70;99.90;;;;;;5011201;28;20187;-70
2022/12/13 06:07:02;;;;;;;1.00;0.50;;;-9.70;99.90;;;;;;5011624;28;20183;-69
2022/12/13 06:09:28;;;;;;;17.30;7.43;;;-9.70;99.90;;;;;;5011792;28;20183;-69
2022/12/13 06:11:54;;;;;;;20.97;8.37;;;-9.60;99.90;;;;;;5011469;28;20233;-70
2022/12/13 06:14:19;;;;;;;18.10;9.30;;;-9.60;99.90;;;;;;5011555;28;20183;-69
2022/12/13 06:16:45;;;;;;;19.27;5.17;;;-9.60;99.90;;;;;;5011694;28;20581;-70
2022/12/13 06:19:10;;;;;;;6.77;2.87;;;-9.60;99.90;;;;;;5011010;28;20198;-70
2022/12/13 06:21:36;;;;;;;18.03;10.00;;;-9.60;99.90;;;;;;5019899;28;20631;-70
2022/12/13 06:24:04;;;;;;;31.37;12.30;;;-9.60;99.90;;;;;;5011320;28;20252;-71
2022/12/13 06:26:30;;;;;;;26.77;11.30;;;-9.60;99.90;;;;;;5011933;28;20557;-70
2022/12/13 06:28:55;;;;;;;1.00;0.40;;;-9.70;99.90;;;;;;5014400;28;20421;-69
2022/12/13 06:31:21;;;;;;;16.30;8.70;;;-9.70;99.90;;;;;;5019168;28;20194;-70
2022/12/13 06:33:46;;;;;;;24.47;9.93;;;-9.70;99.90;;;;;;5006580;28;20612;-70
2022/12/13 06:36:12;;;;;;;7.33;3.80;;;-9.70;99.90;;;;;;5022044;28;20292;-70
2022/12/13 06:38:38;;;;;;;15.67;9.07;;;-9.70;99.90;;;;;;5014197;28;20262;-69
2022/12/13 06:41:14;;;;;;;21.57;9.80;;;-9.70;99.90;;;;;;5010458;28;20194;-69
2022/12/13 06:43:44;;;;;;;23.83;9.90;;;-9.70;99.90;;;;;;5000636;28;20276;-69
2022/12/13 06:46:10;;;;;;;1.00;0.40;;;-9.70;99.90;;;;;;5008670;28;20504;-70
2022/12/13 06:48:35;;;;;;;1.10;0.50;;;-9.80;99.90;;;;;;5018258;28;20915;-69
2022/12/13 06:51:03;;;;;;;1.40;0.63;;;-9.70;99.90;;;;;;5004721;28;20469;-69
2022/12/13 06:53:30;;;;;;;1.00;0.40;;;-9.80;99.90;;;;;;5006584;28;20293;-69
2022/12/13 06:55:56;;;;;;;29.07;11.63;;;-9.80;99.90;;;;;;5008966;28;20452;-69
2022/12/13 06:58:22;;;;;;;25.70;11.10;;;-9.80;99.90;;;;;;5020835;28;20522;-69
2022/12/13 07:00:48;;;;;;;1.77;1.43;;;-9.70;99.90;;;;;;5015166;28;20537;-69
2022/12/13 07:03:14;;;;;;;18.10;8.47;;;-9.80;99.90;;;;;;5014919;28;20465;-69
2022/12/13 07:05:39;;;;;;;17.43;8.10;;;-9.70;99.90;;;;;;5016289;28;20175;-69
2022/12/13 07:08:06;;;;;;;1.50;0.93;;;-9.70;99.90;;;;;;5015141;28;20494;-69
2022/12/13 07:10:31;;;;;;;29.23;9.53;;;-9.70;99.90;;;;;;5016473;28;20194;-69
2022/12/13 07:12:57;;;;;;;23.93;11.67;;;-9.80;99.90;;;;;;5015041;28;20430;-69
2022/12/13 07:15:23;;;;;;;1.93;0.60;;;-9.80;99.90;;;;;;5015766;28;20216;-69
2022/12/13 07:17:49;;;;;;;1.67;0.50;;;-9.80;99.90;;;;;;5014941;28;20694;-69
2022/12/13 07:20:15;;;;;;;1.00;0.50;;;-9.80;99.90;;;;;;5020577;28;20250;-69
2022/12/13 07:22:41;;;;;;;18.80;9.00;;;-9.80;99.90;;;;;;5017467;28;20538;-69
2022/12/13 07:25:07;;;;;;;1.90;1.70;;;-9.80;99.90;;;;;;5015955;28;20770;-69
2022/12/13 07:27:33;;;;;;;11.07;4.50;;;-9.80;99.90;;;;;;5014700;28;20179;-69
2022/12/13 07:29:59;;;;;;;15.50;8.37;;;-9.80;99.90;;;;;;5026533;28;21076;-69
2022/12/13 07:32:25;;;;;;;1.47;0.87;;;-9.80;99.90;;;;;;5020315;28;20422;-69
2022/12/13 07:34:51;;;;;;;1.73;1.03;;;-9.80;99.90;;;;;;5014451;28;20191;-69
2022/12/13 07:37:17;;;;;;;1.60;1.00;;;-9.80;99.90;;;;;;5015678;28;20444;-69
2022/12/13 07:39:42;;;;;;;19.80;9.27;;;-9.70;99.90;;;;;;5009233;28;20214;-69
2022/12/13 07:42:08;;;;;;;4.97;2.77;;;-9.70;99.90;;;;;;5015624;28;20207;-68
2022/12/13 07:44:33;;;;;;;1.30;0.60;;;-9.60;99.90;;;;;;5027778;28;20265;-69
2022/12/13 07:46:59;;;;;;;1.30;0.53;;;-9.60;99.90;;;;;;5018821;28;20261;-68
2022/12/13 07:49:25;;;;;;;1.00;0.40;;;-9.50;99.90;;;;;;5016225;28;20179;-69
2022/12/13 07:51:50;;;;;;;24.47;10.23;;;-9.50;99.90;;;;;;5016147;28;20222;-68
2022/12/13 07:54:16;;;;;;;28.30;12.60;;;-9.40;99.90;;;;;;5016949;28;20198;-68
2022/12/13 07:56:42;;;;;;;1.00;0.50;;;-9.40;99.90;;;;;;5016789;28;20271;-68
2022/12/13 07:59:09;;;;;;;1.10;0.60;;;-9.40;99.90;;;;;;5016109;28;20501;-68
2022/12/13 08:01:34;;;;;;;1.10;0.50;;;-9.30;99.90;;;;;;5016282;28;20554;-68
2022/12/13 08:04:03;;;;;;;89.37;29.90;;;-9.30;99.90;;;;;;5015987;28;20464;-68
2022/12/13 08:06:33;;;;;;;1.10;0.53;;;-9.30;99.90;;;;;;5016639;28;21032;-68
2022/12/13 08:08:58;;;;;;;71.80;25.40;;;-9.20;99.90;;;;;;5016682;28;20418;-68
2022/12/13 08:11:24;;;;;;;2.63;1.57;;;-9.10;99.90;;;;;;5001456;28;20424;-68
2022/12/13 08:13:52;;;;;;;5.33;4.17;;;-9.00;99.90;;;;;;5013083;28;20295;-68
2022/12/13 08:16:17;;;;;;;1.30;0.63;;;-8.90;99.90;;;;;;5011827;28;20429;-68
2022/12/13 08:18:46;;;;;;;1.20;0.50;;;-8.80;99.90;;;;;;5012755;28;20461;-69
2022/12/13 08:21:12;;;;;;;51.30;22.60;;;-8.70;99.90;;;;;;5021794;28;20249;-69
2022/12/13 08:23:37;;;;;;;51.37;19.40;;;-8.60;99.90;;;;;;5012602;28;20449;-69
2022/12/13 08:26:04;;;;;;;41.03;21.03;;;-8.50;99.90;;;;;;5013099;28;20418;-69
2022/12/13 08:28:31;;;;;;;40.97;18.63;;;-8.40;99.90;;;;;;5014954;28;20183;-69
2022/12/13 08:31:05;;;;;;;44.07;18.13;;;-8.40;99.90;;;;;;5026426;28;20418;-69
2022/12/13 08:33:35;;;;;;;1.70;0.70;;;-8.30;99.90;;;;;;5011975;28;20444;-69
2022/12/13 08:36:11;;;;;;;3.10;1.23;;;-8.20;99.90;;;;;;5012672;28;20449;-69
2022/12/13 08:38:37;;;;;;;1.30;0.90;;;-8.10;99.90;;;;;;5012853;28;20418;-69
2022/12/13 08:41:04;;;;;;;20.07;8.57;;;-7.90;99.90;;;;;;5013142;28;20449;-69
2022/12/13 08:43:30;;;;;;;44.73;18.23;;;-7.80;99.90;;;;;;5022816;28;20292;-69
2022/12/13 08:45:55;;;;;;;7.60;2.77;;;-7.80;99.90;;;;;;5020232;28;20505;-69
2022/12/13 08:48:21;;;;;;;43.90;18.90;;;-7.80;99.90;;;;;;5001431;28;20565;-69
2022/12/13 08:50:46;;;;;;;9.47;4.77;;;-7.80;99.90;;;;;;5011768;28;20640;-69
2022/12/13 08:53:12;;;;;;;37.00;17.70;;;-7.70;99.90;;;;;;5005402;28;20217;-69
2022/12/13 08:55:37;;;;;;;39.43;15.53;;;-7.70;99.90;;;;;;5012824;28;20669;-69
2022/12/13 08:58:07;;;;;;;44.37;20.33;;;-7.60;99.90;;;;;;5010966;28;20183;-69
2022/12/13 09:00:36;;;;;;;51.10;19.03;;;-7.70;99.90;;;;;;5005480;28;20183;-69
2022/12/13 09:03:05;;;;;;;66.27;25.23;;;-7.60;99.90;;;;;;5010262;28;20458;-69
2022/12/13 09:05:32;;;;;;;59.23;24.83;;;-7.50;99.90;;;;;;5010945;28;20418;-69
2022/12/13 09:07:58;;;;;;;75.43;24.50;;;-7.50;99.90;;;;;;5011428;28;20458;-69
2022/12/13 09:10:24;;;;;;;22.77;8.83;;;-7.40;99.90;;;;;;5011284;28;20956;-70
2022/12/13 09:12:50;;;;;;;22.67;20.73;;;-7.30;99.90;;;;;;5011072;28;20426;-69
2022/12/13 09:15:16;;;;;;;2.40;1.13;;;-7.20;99.90;;;;;;5011601;28;20657;-69
2022/12/13 09:17:42;;;;;;;55.17;22.57;;;-7.10;99.90;;;;;;5010875;28;20516;-69
2022/12/13 09:20:10;;;;;;;68.20;21.27;;;-7.00;99.90;;;;;;5014700;28;20582;-69
2022/12/13 09:22:36;;;;;;;39.77;18.87;;;-6.90;99.90;;;;;;5013848;28;20207;-70
2022/12/13 09:25:03;;;;;;;1.50;1.03;;;-6.90;99.90;;;;;;5010849;28;20418;-69
2022/12/13 09:27:30;;;;;;;1.10;0.53;;;-6.80;99.90;;;;;;5011061;28;20433;-70
2022/12/13 09:29:56;;;;;;;26.80;11.63;;;-6.70;99.90;;;;;;5019032;28;20410;-69
2022/12/13 09:32:22;;;;;;;31.40;8.90;;;-6.60;99.90;;;;;;5021809;28;20433;-69
2022/12/13 09:34:48;;;;;;;1.10;0.50;;;-6.50;99.90;;;;;;5010333;28;20422;-69
2022/12/13 09:37:13;;;;;;;1.53;1.10;;;-6.40;99.90;;;;;;5010582;28;20556;-69
2022/12/13 09:39:39;;;;;;;16.47;6.80;;;-6.20;99.90;;;;;;5011062;28;20187;-69
2022/12/13 09:42:29;;;;;;;1.30;0.70;;;-6.10;99.90;;;;;;5011182;28;20175;-69
2022/12/13 09:45:01;;;;;;;17.43;7.27;;;-6.00;99.90;;;;;;5020603;28;20635;-69
2022/12/13 09:47:30;;;;;;;2.40;1.17;;;-5.70;99.90;;;;;;5010647;28;20409;-69
2022/12/13 09:49:58;;;;;;;16.53;7.07;;;-5.50;99.90;;;;;;5008275;28;20434;-69
2022/12/13 09:52:25;;;;;;;8.03;3.20;;;-5.30;99.90;;;;;;5009924;28;20444;-69
2022/12/13 09:54:55;;;;;;;2.07;1.23;;;-5.20;99.90;;;;;;5010295;28;20422;-69
2022/12/13 09:57:30;;;;;;;1.10;0.53;;;-5.10;99.90;;;;;;5009690;28;20508;-69
2022/12/13 09:59:56;;;;;;;1.40;0.70;;;-5.00;99.90;;;;;;5010975;28;20414;-70
2022/12/13 10:02:30;;;;;;;1.40;0.63;;;-5.00;99.90;;;;;;5010306;28;20939;-70
2022/12/13 10:05:11;;;;;;;18.80;7.03;;;-4.90;99.90;;;;;;5012016;28;20221;-70
2022/12/13 10:07:39;;;;;;;5.67;3.23;;;-4.90;99.90;;;;;;5010628;28;20783;-70
2022/12/13 10:10:05;;;;;;;22.47;9.13;;;-4.80;99.90;;;;;;5010524;28;20468;-70
2022/12/13 10:12:32;;;;;;;17.63;7.33;;;-4.80;99.90;;;;;;5010348;28;20528;-70
2022/12/13 10:15:00;;;;;;;19.87;8.00;;;-4.70;99.90;;;;;;5010670;28;20441;-71
2022/12/13 10:17:32;;;;;;;22.60;9.23;;;-4.70;99.90;;;;;;5010577;28;20531;-70
2022/12/13 10:19:58;;;;;;;14.13;6.67;;;-4.60;99.90;;;;;;5012878;28;20424;-70
2022/12/13 10:22:23;;;;;;;2.00;0.73;;;-4.50;99.90;;;;;;5013929;28;20454;-70
2022/12/13 10:24:49;;;;;;;1.97;1.23;;;-4.40;99.90;;;;;;5006466;28;20194;-70
2022/12/13 10:27:36;;;;;;;3.33;1.23;;;-4.30;99.90;;;;;;5007830;28;20185;-70
2022/12/13 10:30:07;;;;;;;1.40;0.53;;;-4.20;99.90;;;;;;5018133;28;20624;-70
2022/12/13 10:32:42;;;;;;;3.17;2.87;;;-4.10;99.90;;;;;;5017922;28;20437;-70
2022/12/13 10:35:20;;;;;;;1.50;0.80;;;-3.90;99.90;;;;;;5009000;28;20413;-70
2022/12/13 10:37:45;;;;;;;1.10;0.60;;;-3.80;99.90;;;;;;5009934;28;20418;-70
2022/12/13 10:40:25;;;;;;;2.07;1.00;;;-3.70;99.90;;;;;;5010066;28;20468;-70
2022/12/13 10:43:05;;;;;;;1.10;0.60;;;-3.60;99.90;;;;;;5009091;28;20671;-70
2022/12/13 10:45:30;;;;;;;1.50;0.67;;;-3.50;99.90;;;;;;5010235;28;20445;-70
2022/12/13 10:47:56;;;;;;;1.17;0.60;;;-3.40;99.90;;;;;;5009489;28;20429;-70
2022/12/13 10:50:25;;;;;;;1.10;0.60;;;-3.20;99.90;;;;;;5007472;28;20179;-70
2022/12/13 10:52:51;;;;;;;1.30;0.70;;;-3.20;99.90;;;;;;5009945;28;20310;-70
2022/12/13 10:55:37;;;;;;;1.70;0.80;;;-3.00;99.90;;;;;;5009433;28;20437;-70
2022/12/13 10:58:15;;;;;;;14.17;6.30;;;-3.10;99.90;;;;;;5008966;28;20430;-70
2022/12/13 11:00:45;;;;;;;22.70;8.03;;;-2.80;99.90;;;;;;4998348;28;20430;-70
2022/12/13 11:03:27;;;;;;;1.53;0.63;;;-2.70;99.90;;;;;;5018537;28;20549;-70
2022/12/13 11:06:21;;;;;;;1.10;0.40;;;-2.80;99.90;;;;;;5009331;28;20451;-70
2022/12/13 11:08:47;;;;;;;1.20;0.60;;;-2.80;99.90;;;;;;4997632;28;20484;-70
2022/12/13 11:11:17;;;;;;;1.40;0.70;;;-2.90;99.90;;;;;;5009897;28;20417;-70
2022/12/13 11:13:51;;;;;;;7.77;3.93;;;-2.80;99.90;;;;;;5008096;28;20274;-70
2022/12/13 11:16:23;;;;;;;2.13;1.43;;;-2.70;99.90;;;;;;5010890;28;20500;-70
2022/12/13 11:19:15;;;;;;;1.83;0.83;;;-2.70;99.90;;;;;;5009935;28;20449;-70
2022/12/13 11:21:47;;;;;;;16.43;7.73;;;-2.70;99.90;;;;;;5020004;28;20418;-70
2022/12/13 11:24:22;;;;;;;18.77;7.10;;;-2.80;99.90;;;;;;5010267;28;20465;-70
2022/12/13 11:27:29;;;;;;;8.60;3.13;;;-2.70;99.90;;;;;;5017369;28;20400;-70
2022/12/13 11:30:23;;;;;;;15.40;6.20;;;-2.50;99.90;;;;;;4994969;28;20425;-70
2022/12/13 11:32:54;;;;;;;16.20;6.67;;;-2.60;99.60;;;;;;4989896;28;20461;-70
2022/12/13 11:35:41;;;;;;;7.10;3.77;;;-2.60;99.90;;;;;;5003679;28;20430;-70
2022/12/13 11:38:27;;;;;;;16.13;6.90;;;-2.60;99.90;;;;;;4997262;28;20410;-69
2022/12/13 11:40:58;;;;;;;1.97;0.87;;;-2.60;99.90;;;;;;5010651;28;20480;-70
2022/12/13 11:43:33;;;;;;;2.13;1.00;;;-2.50;99.90;;;;;;5010269;28;20458;-70
2022/12/13 11:46:05;;;;;;;14.80;6.50;;;-2.60;99.90;;;;;;5013947;28;20413;-70
2022/12/13 11:48:45;;;;;;;1.20;0.60;;;-2.50;99.90;;;;;;5009393;28;20429;-70
2022/12/13 11:51:14;;;;;;;2.07;0.80;;;-2.50;99.90;;;;;;5008123;28;20414;-70
2022/12/13 11:53:55;;;;;;;1.10;0.50;;;-2.50;99.90;;;;;;5013566;28;20410;-70
2022/12/13 11:56:30;;;;;;;1.10;0.70;;;-2.50;99.90;;;;;;5014381;28;20419;-70
2022/12/13 11:59:06;;;;;;;1.17;0.50;;;-2.40;99.90;;;;;;5012738;28;20445;-70
2022/12/13 12:01:45;;;;;;;12.20;6.10;;;-2.30;99.90;;;;;;5009691;28;20521;-70
2022/12/13 12:04:28;;;;;;;16.50;6.90;;;-2.20;99.60;;;;;;5001411;28;20505;-70
2022/12/13 12:07:14;;;;;;;2.03;0.90;;;-2.10;99.10;;;;;;5013914;28;20513;-70
2022/12/13 12:09:52;;;;;;;1.53;0.50;;;-2.10;98.90;;;;;;5013765;28;20434;-70
2022/12/13 12:12:38;;;;;;;11.87;6.60;;;-2.20;98.80;;;;;;5013417;28;20429;-70
2022/12/13 12:15:30;;;;;;;2.03;1.10;;;-2.10;99.00;;;;;;5013634;28;20414;-70
2022/12/13 12:17:56;;;;;;;1.43;0.50;;;-2.20;98.90;;;;;;5012942;28;20445;-70
2022/12/13 12:20:44;;;;;;;13.00;5.53;;;-2.20;99.00;;;;;;5010841;28;20481;-70
2022/12/13 12:23:24;;;;;;;12.83;6.87;;;-2.10;98.50;;;;;;4982035;28;20512;-69
2022/12/13 12:26:01;;;;;;;15.43;6.43;;;-2.00;98.50;;;;;;5007844;28;20534;-69
2022/12/13 12:28:40;;;;;;;10.17;5.40;;;-2.00;98.40;;;;;;5012232;28;20497;-69
2022/12/13 12:31:40;;;;;;;1.10;0.40;;;-2.00;98.30;;;;;;5021785;28;20926;-69
2022/12/13 12:34:17;;;;;;;1.53;0.80;;;-1.90;98.50;;;;;;5014850;28;20433;-69
2022/12/13 12:36:54;;;;;;;2.63;2.00;;;-2.00;98.10;;;;;;5012870;28;20424;-69
2022/12/13 12:39:58;;;;;;;1.20;0.50;;;-1.90;98.00;;;;;;5013039;28;20520;-69
2022/12/13 12:42:36;;;;;;;1.87;0.50;;;-1.90;97.90;;;;;;5005451;28;20430;-69
2022/12/13 12:45:05;;;;;;;2.80;1.40;;;-2.00;97.80;;;;;;5013219;28;20437;-70
2022/12/13 12:47:45;;;;;;;20.67;6.47;;;-1.90;97.50;;;;;;5013170;28;20426;-70
2022/12/13 12:50:26;;;;;;;14.03;4.97;;;-1.80;97.20;;;;;;5012306;28;20441;-69
2022/12/13 12:53:15;;;;;;;2.83;1.03;;;-1.80;97.10;;;;;;5012488;28;20475;-69
2022/12/13 12:56:02;;;;;;;15.07;5.20;;;-1.80;96.90;;;;;;5012358;28;20437;-69
2022/12/13 12:58:51;;;;;;;1.47;0.83;;;-1.80;97.00;;;;;;5011774;28;20428;-69
2022/12/13 13:01:28;;;;;;;8.47;4.73;;;-1.90;97.10;;;;;;5012973;28;20461;-69
2022/12/13 13:03:59;;;;;;;1.73;0.70;;;-1.90;97.30;;;;;;5011998;28;20458;-69